createdAt,value
2023-08-28T00:00:46.281Z,101298.41
2023-08-28T00:03:13.718Z,101301.56
2023-08-28T00:05:40.930Z,101290.31
2023-08-28T00:08:10.040Z,101289.13
2023-08-28T00:10:37.391Z,101293.19
2023-08-28T00:13:04.843Z,101285.69
2023-08-28T00:15:32.021Z,101287.47
2023-08-28T00:17:59.024Z,101299.09
2023-08-28T00:20:26.110Z,101292.34
2023-08-28T00:22:53.014Z,101292.34
2023-08-28T00:25:20.239Z,101289.88
2023-08-28T00:27:47.544Z,101293.84
2023-08-28T00:30:14.704Z,101288.25
2023-08-28T00:32:41.870Z,101296.28
2023-08-28T00:35:09.458Z,101293.94
2023-08-28T00:37:36.376Z,101295.63
2023-08-28T00:40:04.426Z,101288.94
2023-08-28T00:42:31.428Z,101282.53
2023-08-28T00:44:58.425Z,101287.41
2023-08-28T00:47:26.330Z,101281.34
2023-08-28T00:49:53.509Z,101287.31
2023-08-28T00:52:20.479Z,101289.00
2023-08-28T00:54:48.684Z,101296.22
2023-08-28T00:57:18.693Z,101298.59
2023-08-28T00:59:47.049Z,101303.00
2023-08-28T01:02:14.193Z,101297.78
2023-08-28T01:04:41.276Z,101306.50
2023-08-28T01:07:24.854Z,101314.03
2023-08-28T01:10:07.054Z,101317.22
2023-08-28T01:12:52.861Z,101324.06
2023-08-28T01:15:21.947Z,101313.88
2023-08-28T01:18:09.390Z,101317.03
2023-08-28T01:20:38.169Z,101323.00
2023-08-28T01:23:16.113Z,101319.69
2023-08-28T01:25:43.214Z,101325.66
2023-08-28T01:28:10.346Z,101331.16
2023-08-28T01:30:37.341Z,101318.34
2023-08-28T01:33:05.199Z,101319.16
2023-08-28T01:35:33.254Z,101316.78
2023-08-28T01:38:20.741Z,101313.94
2023-08-28T01:41:08.940Z,101317.03
2023-08-28T01:43:40.331Z,101323.34
2023-08-28T01:46:08.146Z,101328.94
2023-08-28T01:48:36.655Z,101338.91
2023-08-28T01:51:03.861Z,101339.38
2023-08-28T01:53:31.248Z,101326.28
2023-08-28T01:56:10.372Z,101332.69
2023-08-28T01:58:51.501Z,101327.53
2023-08-28T02:01:19.896Z,101328.78
2023-08-28T02:03:47.576Z,101328.34
2023-08-28T02:06:14.820Z,101327.09
2023-08-28T02:08:41.761Z,101328.22
2023-08-28T02:11:08.762Z,101328.94
2023-08-28T02:13:35.886Z,101333.63
2023-08-28T02:16:03.939Z,101333.25
2023-08-28T02:18:31.623Z,101343.19
2023-08-28T02:20:59.898Z,101337.50
2023-08-28T02:23:30.020Z,101341.94
2023-08-28T02:25:57.017Z,101343.09
2023-08-28T02:28:24.093Z,101345.06
2023-08-28T02:30:51.031Z,101323.00
2023-08-28T02:33:18.404Z,101341.41
2023-08-28T02:35:46.009Z,101339.31
2023-08-28T02:38:13.181Z,101341.69
2023-08-28T02:40:40.449Z,101335.66
2023-08-28T02:43:08.467Z,101332.91
2023-08-28T02:45:40.854Z,101329.84
2023-08-28T02:48:10.681Z,101329.56
2023-08-28T02:50:38.525Z,101338.19
2023-08-28T02:53:05.902Z,101338.44
2023-08-28T02:55:41.470Z,101340.13
2023-08-28T02:58:10.937Z,101337.50
2023-08-28T03:00:39.252Z,101326.03
2023-08-28T03:03:06.969Z,101329.34
2023-08-28T03:05:34.549Z,101323.59
2023-08-28T03:08:01.563Z,101321.75
2023-08-28T03:10:31.132Z,101313.38
2023-08-28T03:12:58.677Z,101302.09
2023-08-28T03:15:25.669Z,101304.75
2023-08-28T03:17:52.723Z,101303.38
2023-08-28T03:20:19.670Z,101304.38
2023-08-28T03:22:47.304Z,101304.59
2023-08-28T03:25:15.120Z,101300.41
2023-08-28T03:27:42.044Z,101299.44
2023-08-28T03:30:10.505Z,101299.63
2023-08-28T03:32:37.497Z,101311.53
2023-08-28T03:35:04.723Z,101311.09
2023-08-28T03:37:31.711Z,101316.69
2023-08-28T03:39:58.703Z,101322.13
2023-08-28T03:42:25.625Z,101326.44
2023-08-28T03:44:52.657Z,101337.25
2023-08-28T03:47:19.515Z,101342.72
2023-08-28T03:49:46.679Z,101350.66
2023-08-28T03:52:13.515Z,101353.00
2023-08-28T03:54:41.081Z,101359.47
2023-08-28T03:57:07.963Z,101366.91
2023-08-28T03:59:35.052Z,101358.06
2023-08-28T04:02:03.592Z,101369.50
2023-08-28T04:04:31.353Z,101361.22
2023-08-28T04:07:03.421Z,101363.19
2023-08-28T04:09:31.163Z,101368.69
2023-08-28T04:11:58.276Z,101378.25
2023-08-28T04:14:25.395Z,101390.50
2023-08-28T04:16:52.314Z,101394.69
2023-08-28T04:19:19.320Z,101394.19
2023-08-28T04:21:46.376Z,101394.69
2023-08-28T04:24:13.319Z,101387.56
2023-08-28T04:26:40.296Z,101401.53
2023-08-28T04:29:07.188Z,101396.75
2023-08-28T04:31:34.299Z,101402.88
2023-08-28T04:34:01.206Z,101409.72
2023-08-28T04:36:28.217Z,101419.22
2023-08-28T04:38:55.863Z,101424.69
2023-08-28T04:41:22.937Z,101435.78
2023-08-28T04:43:49.885Z,101433.59
2023-08-28T04:46:17.294Z,101426.38
2023-08-28T04:48:44.300Z,101430.25
2023-08-28T04:51:11.248Z,101433.41
2023-08-28T04:53:38.326Z,101430.63
2023-08-28T04:56:05.577Z,101435.19
2023-08-28T04:58:32.809Z,101434.47
2023-08-28T05:00:59.893Z,101438.09
2023-08-28T05:03:27.027Z,101432.13
2023-08-28T05:05:54.370Z,101449.13
2023-08-28T05:08:21.945Z,101463.00
2023-08-28T05:10:48.881Z,101449.66
2023-08-28T05:13:16.014Z,101451.81
2023-08-28T05:15:42.946Z,101449.84
2023-08-28T05:18:13.335Z,101439.53
2023-08-28T05:20:42.674Z,101442.31
2023-08-28T05:23:10.214Z,101440.78
2023-08-28T05:25:37.425Z,101440.53
2023-08-28T05:28:04.824Z,101437.75
2023-08-28T05:30:31.822Z,101433.03
2023-08-28T05:32:59.131Z,101438.06
2023-08-28T05:35:26.093Z,101443.47
2023-08-28T05:37:53.897Z,101454.81
2023-08-28T05:40:20.779Z,101441.78
2023-08-28T05:42:47.888Z,101448.34
2023-08-28T05:45:14.903Z,101456.91
2023-08-28T05:47:42.812Z,101456.44
2023-08-28T05:50:10.265Z,101460.44
2023-08-28T05:52:39.051Z,101457.63
2023-08-28T05:55:06.995Z,101456.53
2023-08-28T05:57:35.843Z,101449.47
2023-08-28T06:00:05.397Z,101458.03
2023-08-28T06:02:39.760Z,101460.59
2023-08-28T06:05:07.700Z,101454.75
2023-08-28T06:07:35.078Z,101454.22
2023-08-28T06:10:04.520Z,101452.38
2023-08-28T06:12:31.450Z,101456.19
2023-08-28T06:14:58.505Z,101449.47
2023-08-28T06:17:25.460Z,101450.34
2023-08-28T06:19:52.567Z,101459.78
2023-08-28T06:22:20.636Z,101459.91
2023-08-28T06:24:54.027Z,101440.78
2023-08-28T06:27:21.421Z,101440.59
2023-08-28T06:29:48.490Z,101441.16
2023-08-28T06:32:16.283Z,101448.13
2023-08-28T06:34:43.297Z,101446.63
2023-08-28T06:37:10.157Z,101446.78
2023-08-28T06:39:37.266Z,101441.34
2023-08-28T06:42:04.390Z,101441.06
2023-08-28T06:44:34.809Z,101444.06
2023-08-28T06:47:01.689Z,101436.28
2023-08-28T06:49:29.261Z,101438.44
2023-08-28T06:51:56.342Z,101445.00
2023-08-28T06:54:23.413Z,101434.59
2023-08-28T06:56:50.317Z,101425.53
2023-08-28T06:59:17.397Z,101432.53
2023-08-28T07:01:44.754Z,101415.09
2023-08-28T07:04:11.798Z,101414.34
2023-08-28T07:06:38.661Z,101409.19
2023-08-28T07:09:05.750Z,101410.06
2023-08-28T07:11:32.689Z,101401.63
2023-08-28T07:13:59.933Z,101404.84
2023-08-28T07:16:27.125Z,101394.00
2023-08-28T07:18:54.366Z,101383.25
2023-08-28T07:21:22.102Z,101372.94
2023-08-28T07:23:51.976Z,101366.59
2023-08-28T07:26:19.979Z,101357.88
2023-08-28T07:28:49.860Z,101345.06
2023-08-28T07:31:17.064Z,101335.44
2023-08-28T07:33:44.150Z,101323.41
2023-08-28T07:36:11.302Z,101325.84
2023-08-28T07:38:38.242Z,101329.94
2023-08-28T07:41:05.478Z,101325.94
2023-08-28T07:43:32.388Z,101318.31
2023-08-28T07:45:59.349Z,101315.56
2023-08-28T07:48:26.420Z,101324.47
2023-08-28T07:50:53.467Z,101310.06
2023-08-28T07:53:21.771Z,101308.81
2023-08-28T07:55:48.846Z,101302.00
2023-08-28T07:58:15.765Z,101308.47
2023-08-28T08:00:43.968Z,101307.22
2023-08-28T08:03:10.996Z,101312.47
2023-08-28T08:05:38.120Z,101313.34
2023-08-28T08:08:05.543Z,101313.75
2023-08-28T08:10:33.625Z,101303.72
2023-08-28T08:13:00.719Z,101306.16
2023-08-28T08:15:28.074Z,101308.97
2023-08-28T08:17:55.042Z,101313.84
2023-08-28T08:20:22.304Z,101313.81
2023-08-28T08:22:49.372Z,101315.84
2023-08-28T08:25:16.515Z,101315.84
2023-08-28T08:27:46.167Z,101310.97
2023-08-28T08:30:14.980Z,101315.00
2023-08-28T08:32:42.140Z,101315.34
2023-08-28T08:35:10.543Z,101310.06
2023-08-28T08:37:40.762Z,101310.44
2023-08-28T08:40:15.078Z,101311.19
2023-08-28T08:42:42.214Z,101307.06
2023-08-28T08:45:11.087Z,101311.19
2023-08-28T08:47:40.539Z,101318.53
2023-08-28T08:50:09.851Z,101320.09
2023-08-28T08:52:39.773Z,101318.91
2023-08-28T08:55:30.839Z,101313.38
2023-08-28T08:57:59.149Z,101325.91
2023-08-28T09:00:27.243Z,101320.28
2023-08-28T09:02:54.793Z,101327.94
2023-08-28T09:05:21.894Z,101324.72
2023-08-28T09:07:49.694Z,101323.88
2023-08-28T09:10:16.873Z,101326.66
2023-08-28T09:12:44.219Z,101317.78
2023-08-28T09:15:14.385Z,101325.00
2023-08-28T09:17:42.552Z,101316.09
2023-08-28T09:20:14.698Z,101307.22
2023-08-28T09:22:53.955Z,101306.25
2023-08-28T09:25:23.847Z,101302.06
2023-08-28T09:27:53.274Z,101299.97
2023-08-28T09:30:31.513Z,101299.66
2023-08-28T09:33:00.953Z,101295.63
2023-08-28T09:35:29.178Z,101303.44
2023-08-28T09:37:57.986Z,101306.66
2023-08-28T09:40:33.483Z,101308.59
2023-08-28T09:43:01.215Z,101315.28
2023-08-28T09:45:35.521Z,101316.56
2023-08-28T09:48:07.110Z,101325.50
2023-08-28T09:50:36.363Z,101324.56
2023-08-28T09:53:08.454Z,101310.47
2023-08-28T09:55:53.031Z,101317.63
2023-08-28T09:58:23.300Z,101317.31
2023-08-28T10:00:51.850Z,101309.25
2023-08-28T10:03:19.113Z,101310.84
2023-08-28T10:05:47.198Z,101306.44
2023-08-28T10:08:16.320Z,101311.72
2023-08-28T10:10:47.324Z,101313.53
2023-08-28T10:13:20.847Z,101308.69
2023-08-28T10:16:15.296Z,101321.13
2023-08-28T10:18:50.112Z,101313.13
2023-08-28T10:21:18.107Z,101303.88
2023-08-28T10:23:46.241Z,101300.94
2023-08-28T10:26:14.631Z,101299.63
2023-08-28T10:28:42.621Z,101306.34
2023-08-28T10:31:10.387Z,101288.72
2023-08-28T10:33:37.779Z,101286.72
2023-08-28T10:36:10.575Z,101277.31
2023-08-28T10:38:43.845Z,101299.09
2023-08-28T10:41:15.100Z,101291.75
2023-08-28T10:43:42.178Z,101308.91
2023-08-28T10:46:10.045Z,101308.13
2023-08-28T10:48:40.679Z,101298.81
2023-08-28T10:51:13.488Z,101306.22
2023-08-28T10:53:41.050Z,101318.00
2023-08-28T10:56:08.102Z,101322.25
2023-08-28T10:58:38.650Z,101312.44
2023-08-28T11:01:19.161Z,101318.63
2023-08-28T11:03:52.293Z,101319.25
2023-08-28T11:06:49.056Z,101316.56
2023-08-28T11:09:28.871Z,101319.13
2023-08-28T11:11:59.115Z,101317.06
2023-08-28T11:14:43.277Z,101318.75
2023-08-28T11:17:21.159Z,101318.09
2023-08-28T11:19:57.612Z,101314.63
2023-08-28T11:22:31.237Z,101307.91
2023-08-28T11:24:59.036Z,101313.81
2023-08-28T11:27:43.752Z,101313.66
2023-08-28T11:30:13.249Z,101317.91
2023-08-28T11:32:42.532Z,101315.53
2023-08-28T11:35:10.820Z,101316.19
2023-08-28T11:37:43.312Z,101321.78
2023-08-28T11:40:11.179Z,101329.06
2023-08-28T11:42:39.342Z,101326.38
2023-08-28T11:45:07.679Z,101321.63
2023-08-28T11:47:35.372Z,101324.53
2023-08-28T11:50:05.875Z,101325.59
2023-08-28T11:52:33.681Z,101317.91
2023-08-28T11:55:05.235Z,101326.50
2023-08-28T11:57:34.203Z,101324.09
2023-08-28T12:00:06.140Z,101318.34
2023-08-28T12:02:44.502Z,101317.88
2023-08-28T12:05:13.416Z,101312.44
2023-08-28T12:07:44.492Z,101321.06
2023-08-28T12:10:13.219Z,101328.47
2023-08-28T12:12:40.220Z,101325.00
2023-08-28T12:15:09.638Z,101330.25
2023-08-28T12:17:37.812Z,101316.31
2023-08-28T12:20:08.015Z,101315.63
2023-08-28T12:22:43.546Z,101329.41
2023-08-28T12:25:10.539Z,101336.03
2023-08-28T12:27:37.464Z,101327.66
2023-08-28T12:30:06.306Z,101317.03
2023-08-28T12:32:34.048Z,101315.59
2023-08-28T12:35:13.591Z,101318.69
2023-08-28T12:37:42.006Z,101310.72
2023-08-28T12:40:12.258Z,101302.84
2023-08-28T12:42:40.334Z,101310.28
2023-08-28T12:45:07.843Z,101302.75
2023-08-28T12:47:35.091Z,101309.53
2023-08-28T12:50:01.986Z,101306.13
2023-08-28T12:52:31.530Z,101313.84
2023-08-28T12:55:00.239Z,101299.69
2023-08-28T12:57:27.355Z,101314.84
2023-08-28T12:59:54.295Z,101305.50
2023-08-28T13:02:21.397Z,101313.00
2023-08-28T13:04:49.050Z,101313.19
2023-08-28T13:07:18.611Z,101312.16
2023-08-28T13:09:47.672Z,101306.88
2023-08-28T13:12:14.560Z,101308.13
2023-08-28T13:14:41.627Z,101304.03
2023-08-28T13:17:08.482Z,101320.56
2023-08-28T13:19:35.548Z,101319.31
2023-08-28T13:22:04.446Z,101315.88
2023-08-28T13:24:42.983Z,101312.06
2023-08-28T13:27:12.168Z,101322.81
2023-08-28T13:29:39.544Z,101313.09
2023-08-28T13:32:06.926Z,101314.97
2023-08-28T13:34:33.790Z,101312.84
2023-08-28T13:37:06.712Z,101315.16
2023-08-28T13:39:34.310Z,101313.00
2023-08-28T13:42:01.301Z,101320.91
2023-08-28T13:44:30.399Z,101319.66
2023-08-28T13:46:58.575Z,101316.53
2023-08-28T13:49:25.574Z,101318.91
2023-08-28T13:51:52.908Z,101318.66
2023-08-28T13:54:20.080Z,101321.78
2023-08-28T13:56:46.958Z,101334.03
2023-08-28T13:59:14.098Z,101335.56
2023-08-28T14:01:42.467Z,101327.53
2023-08-28T14:04:10.498Z,101330.50
2023-08-28T14:06:37.423Z,101333.69
2023-08-28T14:09:05.351Z,101339.44
2023-08-28T14:11:32.430Z,101341.59
2023-08-28T14:13:59.570Z,101341.94
2023-08-28T14:16:26.503Z,101348.94
2023-08-28T14:18:53.589Z,101346.94
2023-08-28T14:21:20.497Z,101357.59
2023-08-28T14:23:47.528Z,101349.28
2023-08-28T14:26:14.536Z,101340.56
2023-08-28T14:28:41.706Z,101350.63
2023-08-28T14:31:08.607Z,101356.00
2023-08-28T14:33:37.575Z,101354.50
2023-08-28T14:36:04.961Z,101358.72
2023-08-28T14:38:32.653Z,101361.16
2023-08-28T14:40:59.900Z,101360.44
2023-08-28T14:43:27.006Z,101364.84
2023-08-28T14:45:53.935Z,101362.97
2023-08-28T14:48:21.265Z,101378.47
2023-08-28T14:50:48.237Z,101373.16
2023-08-28T14:53:15.284Z,101381.84
2023-08-28T14:55:42.208Z,101371.38
2023-08-28T14:58:09.167Z,101368.97
2023-08-28T15:00:36.331Z,101367.34
2023-08-28T15:03:04.528Z,101373.28
2023-08-28T15:05:32.989Z,101371.09
2023-08-28T15:08:11.801Z,101365.53
2023-08-28T15:10:44.003Z,101366.03
2023-08-28T15:13:10.953Z,101370.50
2023-08-28T15:15:42.456Z,101382.00
2023-08-28T15:18:09.644Z,101376.31
2023-08-28T15:20:36.606Z,101378.34
2023-08-28T15:23:04.752Z,101380.34
2023-08-28T15:25:31.884Z,101388.56
2023-08-28T15:27:58.922Z,101385.03
2023-08-28T15:30:26.074Z,101385.00
2023-08-28T15:32:53.010Z,101385.78
2023-08-28T15:35:20.097Z,101380.03
2023-08-28T15:37:47.157Z,101374.25
2023-08-28T15:40:14.519Z,101380.69
2023-08-28T15:42:41.477Z,101381.97
2023-08-28T15:45:08.808Z,101384.00
2023-08-28T15:47:37.528Z,101385.25
2023-08-28T15:50:05.815Z,101385.28
2023-08-28T15:52:32.685Z,101382.91
2023-08-28T15:54:59.677Z,101384.97
2023-08-28T15:57:26.520Z,101384.19
2023-08-28T15:59:53.503Z,101369.22
2023-08-28T16:02:20.365Z,101375.28
2023-08-28T16:04:48.911Z,101367.22
2023-08-28T16:07:16.016Z,101380.16
2023-08-28T16:09:43.155Z,101382.19
2023-08-28T16:12:10.155Z,101373.31
2023-08-28T16:14:37.279Z,101386.59
2023-08-28T16:17:04.774Z,101388.22
2023-08-28T16:19:31.855Z,101391.44
2023-08-28T16:21:58.856Z,101391.03
2023-08-28T16:24:25.915Z,101396.69
2023-08-28T16:26:52.852Z,101397.09
2023-08-28T16:29:19.924Z,101406.84
2023-08-28T16:31:46.812Z,101401.59
2023-08-28T16:34:14.187Z,101402.38
2023-08-28T16:36:41.027Z,101389.47
2023-08-28T16:39:08.863Z,101379.78
2023-08-28T16:41:36.079Z,101394.75
2023-08-28T16:44:03.657Z,101389.09
2023-08-28T16:46:31.704Z,101395.16
2023-08-28T16:48:58.695Z,101391.50
2023-08-28T16:51:25.924Z,101387.06
2023-08-28T16:53:53.707Z,101394.31
2023-08-28T16:56:21.144Z,101388.25
2023-08-28T16:58:48.118Z,101377.78
2023-08-28T17:01:15.172Z,101385.03
2023-08-28T17:03:42.175Z,101383.47
2023-08-28T17:06:09.247Z,101387.88
2023-08-28T17:08:36.330Z,101385.88
2023-08-28T17:11:03.440Z,101392.75
2023-08-28T17:13:30.355Z,101389.09
2023-08-28T17:15:57.620Z,101398.81
2023-08-28T17:18:24.552Z,101388.75
2023-08-28T17:20:51.595Z,101394.78
2023-08-28T17:23:18.545Z,101393.56
2023-08-28T17:25:45.939Z,101391.56
2023-08-28T17:28:13.877Z,101384.75
2023-08-28T17:30:41.018Z,101390.78
2023-08-28T17:33:08.246Z,101386.72
2023-08-28T17:35:35.575Z,101387.16
2023-08-28T17:38:02.456Z,101391.19
2023-08-28T17:40:30.870Z,101387.59
2023-08-28T17:42:57.734Z,101396.84
2023-08-28T17:45:24.722Z,101398.03
2023-08-28T17:47:51.739Z,101403.72
2023-08-28T17:50:19.915Z,101395.66
2023-08-28T17:52:47.003Z,101409.75
2023-08-28T17:55:13.950Z,101404.16
2023-08-28T17:57:41.017Z,101406.16
2023-08-28T18:00:08.621Z,101404.13
2023-08-28T18:02:59.007Z,101404.47
2023-08-28T18:05:28.218Z,101412.53
2023-08-28T18:07:55.363Z,101409.28
2023-08-28T18:10:22.330Z,101408.44
2023-08-28T18:12:49.350Z,101415.31
2023-08-28T18:15:18.480Z,101410.88
2023-08-28T18:17:47.168Z,101418.09
2023-08-28T18:20:14.205Z,101418.06
2023-08-28T18:22:41.273Z,101422.47
2023-08-28T18:25:08.667Z,101420.78
2023-08-28T18:27:42.906Z,101424.78
2023-08-28T18:30:16.637Z,101429.53
2023-08-28T18:32:43.715Z,101423.38
2023-08-28T18:35:10.960Z,101431.81
2023-08-28T18:37:37.870Z,101435.41
2023-08-28T18:40:06.617Z,101438.19
2023-08-28T18:42:34.171Z,101428.84
2023-08-28T18:45:01.242Z,101440.88
2023-08-28T18:47:28.115Z,101444.03
2023-08-28T18:49:55.153Z,101438.31
2023-08-28T18:52:22.036Z,101441.97
2023-08-28T18:54:49.075Z,101439.53
2023-08-28T18:57:15.990Z,101446.69
2023-08-28T18:59:42.966Z,101452.66
2023-08-28T19:02:09.960Z,101458.22
2023-08-28T19:04:37.244Z,101453.75
2023-08-28T19:07:04.924Z,101466.97
2023-08-28T19:09:31.831Z,101470.53
2023-08-28T19:11:58.961Z,101470.09
2023-08-28T19:14:25.858Z,101464.84
2023-08-28T19:16:52.915Z,101474.41
2023-08-28T19:19:19.929Z,101469.84
2023-08-28T19:21:47.024Z,101478.63
2023-08-28T19:24:13.973Z,101481.81
2023-08-28T19:26:41.035Z,101476.19
2023-08-28T19:29:07.972Z,101493.03
2023-08-28T19:31:35.100Z,101480.97
2023-08-28T19:34:02.122Z,101496.97
2023-08-28T19:36:29.027Z,101495.66
2023-08-28T19:38:56.284Z,101497.97
2023-08-28T19:41:23.150Z,101502.41
2023-08-28T19:43:50.308Z,101503.53
2023-08-28T19:46:17.257Z,101500.31
2023-08-28T19:48:46.204Z,101511.88
2023-08-28T19:51:13.060Z,101503.03
2023-08-28T19:53:40.940Z,101507.03
2023-08-28T19:56:07.925Z,101509.31
2023-08-28T19:58:34.945Z,101508.50
2023-08-28T20:01:02.587Z,101508.00
2023-08-28T20:03:29.926Z,101511.91
2023-08-28T20:06:06.498Z,101511.88
2023-08-28T20:08:33.739Z,101513.38
2023-08-28T20:11:00.843Z,101517.34
2023-08-28T20:13:27.771Z,101523.69
2023-08-28T20:15:54.827Z,101524.84
2023-08-28T20:18:23.918Z,101522.78
2023-08-28T20:20:50.929Z,101533.50
2023-08-28T20:23:17.867Z,101526.22
2023-08-28T20:25:45.719Z,101529.41
2023-08-28T20:28:12.777Z,101531.31
2023-08-28T20:30:39.761Z,101532.13
2023-08-28T20:33:06.886Z,101533.22
2023-08-28T20:35:34.015Z,101539.59
2023-08-28T20:38:00.930Z,101527.13
2023-08-28T20:40:28.201Z,101523.47
2023-08-28T20:42:55.172Z,101526.19
2023-08-28T20:45:23.052Z,101533.00
2023-08-28T20:47:52.962Z,101536.59
2023-08-28T20:50:20.294Z,101539.41
2023-08-28T20:52:47.736Z,101537.38
2023-08-28T20:55:14.764Z,101536.50
2023-08-28T20:57:42.091Z,101538.88
2023-08-28T21:00:09.901Z,101544.09
2023-08-28T21:02:37.545Z,101540.41
2023-08-28T21:05:05.220Z,101538.28
2023-08-28T21:07:32.375Z,101535.88
2023-08-28T21:09:59.252Z,101537.50
2023-08-28T21:12:26.276Z,101545.84
2023-08-28T21:14:53.149Z,101535.75
2023-08-28T21:17:20.126Z,101533.28
2023-08-28T21:19:47.295Z,101535.31
2023-08-28T21:22:14.358Z,101543.78
2023-08-28T21:24:41.213Z,101534.19
2023-08-28T21:27:08.236Z,101540.09
2023-08-28T21:29:35.141Z,101540.84
2023-08-28T21:32:02.908Z,101546.81
2023-08-28T21:34:29.982Z,101545.56
2023-08-28T21:36:57.096Z,101544.81
2023-08-28T21:39:24.267Z,101541.66
2023-08-28T21:41:51.205Z,101540.91
2023-08-28T21:44:18.385Z,101550.59
2023-08-28T21:46:45.270Z,101536.72
2023-08-28T21:49:31.155Z,101530.38
2023-08-28T21:52:17.067Z,101536.38
2023-08-28T21:55:02.576Z,101539.59
2023-08-28T21:57:48.181Z,101536.38
2023-08-28T22:00:36.826Z,101526.22
2023-08-28T22:03:22.469Z,101518.97
2023-08-28T22:06:08.109Z,101516.03
2023-08-28T22:08:35.310Z,101524.84
2023-08-28T22:11:22.238Z,101519.53
2023-08-28T22:13:57.392Z,101511.78
2023-08-28T22:16:24.506Z,101524.56
2023-08-28T22:18:51.734Z,101524.94
2023-08-28T22:21:19.900Z,101523.63
2023-08-28T22:23:47.171Z,101530.38
2023-08-28T22:26:16.131Z,101530.03
2023-08-28T22:28:43.218Z,101525.47
2023-08-28T22:31:10.109Z,101534.22
2023-08-28T22:33:37.175Z,101532.19
2023-08-28T22:36:04.134Z,101531.25
2023-08-28T22:38:31.148Z,101529.97
2023-08-28T22:40:58.548Z,101522.31
2023-08-28T22:43:26.038Z,101527.09
2023-08-28T22:45:53.150Z,101523.06
2023-08-28T22:48:20.168Z,101524.19
2023-08-28T22:50:47.134Z,101521.00
2023-08-28T22:53:14.148Z,101526.00
2023-08-28T22:55:41.025Z,101522.41
2023-08-28T22:58:08.278Z,101523.47
2023-08-28T23:00:36.337Z,101517.28
2023-08-28T23:03:03.418Z,101528.81
2023-08-28T23:05:30.464Z,101524.34
2023-08-28T23:07:57.702Z,101523.91
2023-08-28T23:10:24.623Z,101524.34
2023-08-28T23:12:51.655Z,101512.31
2023-08-28T23:15:18.814Z,101521.09
2023-08-28T23:17:45.717Z,101508.63
2023-08-28T23:20:14.225Z,101508.56
2023-08-28T23:22:41.819Z,101500.00
2023-08-28T23:25:09.376Z,101507.97
2023-08-28T23:27:36.809Z,101509.03
2023-08-28T23:30:04.642Z,101514.19
2023-08-28T23:32:32.633Z,101514.88
2023-08-28T23:35:02.039Z,101511.06
2023-08-28T23:37:30.465Z,101515.03
2023-08-28T23:39:58.183Z,101507.44
2023-08-28T23:42:25.370Z,101512.84
2023-08-28T23:44:52.443Z,101512.22
2023-08-28T23:47:19.662Z,101510.97
2023-08-28T23:49:47.373Z,101513.63
2023-08-28T23:52:14.411Z,101510.44
2023-08-28T23:54:41.642Z,101505.13
2023-08-28T23:57:08.608Z,101501.44
2023-08-28T23:59:35.620Z,101498.56
